sensor_id;sensor_type;location;lat;lon;timestamp;P1;durP1;ratioP1;P2;durP2;ratioP2
12601;SDS011;30282;16.436;99.370;2023-08-17T00:01:47;22.23;;;10.40;;
12601;SDS011;30282;16.436;99.370;2023-08-17T00:04:16;26.30;;;13.23;;
12601;SDS011;30282;16.436;99.370;2023-08-17T00:06:46;28.77;;;12.07;;
12601;SDS011;30282;16.436;99.370;2023-08-17T00:09:16;19.47;;;12.00;;
12601;SDS011;30282;16.436;99.370;2023-08-17T00:11:49;20.87;;;11.97;;
12601;SDS011;30282;16.436;99.370;2023-08-17T00:14:18;23.03;;;12.87;;
12601;SDS011;30282;16.436;99.370;2023-08-17T00:16:53;20.10;;;10.80;;
12601;SDS011;30282;16.436;99.370;2023-08-17T00:19:22;19.87;;;13.10;;
12601;SDS011;30282;16.436;99.370;2023-08-17T00:21:52;26.93;;;14.60;;
12601;SDS011;30282;16.436;99.370;2023-08-17T00:24:23;25.07;;;15.13;;
12601;SDS011;30282;16.436;99.370;2023-08-17T00:26:52;27.77;;;14.10;;
12601;SDS011;30282;16.436;99.370;2023-08-17T00:29:21;26.23;;;14.10;;
12601;SDS011;30282;16.436;99.370;2023-08-17T00:31:50;21.40;;;13.07;;
12601;SDS011;30282;16.436;99.370;2023-08-17T00:34:19;19.13;;;11.93;;
12601;SDS011;30282;16.436;99.370;2023-08-17T00:36:48;20.77;;;11.47;;
12601;SDS011;30282;16.436;99.370;2023-08-17T00:39:17;27.27;;;11.87;;
12601;SDS011;30282;16.436;99.370;2023-08-17T00:41:48;23.30;;;11.43;;
12601;SDS011;30282;16.436;99.370;2023-08-17T00:44:18;20.30;;;11.90;;
12601;SDS011;30282;16.436;99.370;2023-08-17T00:46:47;16.03;;;10.90;;
12601;SDS011;30282;16.436;99.370;2023-08-17T00:49:16;18.87;;;12.23;;
12601;SDS011;30282;16.436;99.370;2023-08-17T00:51:45;30.47;;;12.17;;
12601;SDS011;30282;16.436;99.370;2023-08-17T00:54:16;16.10;;;9.83;;
12601;SDS011;30282;16.436;99.370;2023-08-17T00:56:53;25.10;;;11.50;;
12601;SDS011;30282;16.436;99.370;2023-08-17T00:59:22;24.37;;;11.33;;
12601;SDS011;30282;16.436;99.370;2023-08-17T01:01:52;17.93;;;12.33;;
12601;SDS011;30282;16.436;99.370;2023-08-17T01:04:21;23.30;;;13.10;;
12601;SDS011;30282;16.436;99.370;2023-08-17T01:06:50;22.87;;;12.97;;
12601;SDS011;30282;16.436;99.370;2023-08-17T01:09:19;24.73;;;13.00;;
12601;SDS011;30282;16.436;99.370;2023-08-17T01:11:56;17.37;;;10.57;;
12601;SDS011;30282;16.436;99.370;2023-08-17T01:14:30;16.70;;;10.73;;
12601;SDS011;30282;16.436;99.370;2023-08-17T01:17:06;35.77;;;12.80;;
12601;SDS011;30282;16.436;99.370;2023-08-17T01:19:38;15.20;;;9.60;;
12601;SDS011;30282;16.436;99.370;2023-08-17T01:22:08;18.77;;;10.20;;
12601;SDS011;30282;16.436;99.370;2023-08-17T01:24:40;16.73;;;9.27;;
12601;SDS011;30282;16.436;99.370;2023-08-17T01:27:09;20.10;;;10.80;;
12601;SDS011;30282;16.436;99.370;2023-08-17T01:29:38;20.60;;;10.77;;
12601;SDS011;30282;16.436;99.370;2023-08-17T01:32:16;21.20;;;10.60;;
12601;SDS011;30282;16.436;99.370;2023-08-17T01:34:53;19.00;;;10.03;;
12601;SDS011;30282;16.436;99.370;2023-08-17T01:37:26;17.43;;;8.87;;
12601;SDS011;30282;16.436;99.370;2023-08-17T01:40:05;17.93;;;9.93;;
12601;SDS011;30282;16.436;99.370;2023-08-17T01:42:40;19.70;;;9.60;;
12601;SDS011;30282;16.436;99.370;2023-08-17T01:45:11;14.10;;;8.97;;
12601;SDS011;30282;16.436;99.370;2023-08-17T01:47:40;20.07;;;9.20;;
12601;SDS011;30282;16.436;99.370;2023-08-17T01:50:09;30.73;;;11.00;;
12601;SDS011;30282;16.436;99.370;2023-08-17T01:52:38;14.30;;;9.10;;
12601;SDS011;30282;16.436;99.370;2023-08-17T01:55:09;19.70;;;10.33;;
12601;SDS011;30282;16.436;99.370;2023-08-17T01:57:38;23.53;;;9.90;;
12601;SDS011;30282;16.436;99.370;2023-08-17T02:00:07;25.03;;;11.03;;
12601;SDS011;30282;16.436;99.370;2023-08-17T02:02:37;11.80;;;7.50;;
12601;SDS011;30282;16.436;99.370;2023-08-17T02:05:07;15.47;;;8.70;;
12601;SDS011;30282;16.436;99.370;2023-08-17T02:07:36;11.43;;;8.03;;
12601;SDS011;30282;16.436;99.370;2023-08-17T02:10:06;16.80;;;8.53;;
12601;SDS011;30282;16.436;99.370;2023-08-17T02:12:37;13.20;;;7.43;;
12601;SDS011;30282;16.436;99.370;2023-08-17T02:15:06;15.73;;;8.40;;
12601;SDS011;30282;16.436;99.370;2023-08-17T02:17:36;17.43;;;7.80;;
12601;SDS011;30282;16.436;99.370;2023-08-17T02:20:06;19.63;;;7.93;;
12601;SDS011;30282;16.436;99.370;2023-08-17T02:22:36;21.33;;;8.33;;
12601;SDS011;30282;16.436;99.370;2023-08-17T02:25:05;19.00;;;7.63;;
12601;SDS011;30282;16.436;99.370;2023-08-17T02:27:37;11.87;;;7.07;;
12601;SDS011;30282;16.436;99.370;2023-08-17T02:30:06;16.53;;;8.00;;
12601;SDS011;30282;16.436;99.370;2023-08-17T02:32:36;15.40;;;7.70;;
12601;SDS011;30282;16.436;99.370;2023-08-17T02:35:06;15.10;;;7.87;;
12601;SDS011;30282;16.436;99.370;2023-08-17T02:37:35;12.80;;;7.67;;
12601;SDS011;30282;16.436;99.370;2023-08-17T02:40:08;14.67;;;7.80;;
12601;SDS011;30282;16.436;99.370;2023-08-17T02:42:39;11.63;;;7.80;;
12601;SDS011;30282;16.436;99.370;2023-08-17T02:45:11;11.50;;;7.60;;
12601;SDS011;30282;16.436;99.370;2023-08-17T02:47:40;14.20;;;7.20;;
12601;SDS011;30282;16.436;99.370;2023-08-17T02:50:09;18.37;;;7.60;;
12601;SDS011;30282;16.436;99.370;2023-08-17T02:52:42;15.00;;;7.47;;
12601;SDS011;30282;16.436;99.370;2023-08-17T02:55:11;10.00;;;6.90;;
12601;SDS011;30282;16.436;99.370;2023-08-17T02:57:42;11.40;;;6.73;;
12601;SDS011;30282;16.436;99.370;2023-08-17T03:00:11;13.70;;;8.03;;
12601;SDS011;30282;16.436;99.370;2023-08-17T03:02:41;13.93;;;8.10;;
12601;SDS011;30282;16.436;99.370;2023-08-17T03:05:10;17.27;;;7.37;;
12601;SDS011;30282;16.436;99.370;2023-08-17T03:07:39;21.60;;;7.03;;
12601;SDS011;30282;16.436;99.370;2023-08-17T03:10:08;10.73;;;6.87;;
12601;SDS011;30282;16.436;99.370;2023-08-17T03:12:38;13.03;;;6.37;;
12601;SDS011;30282;16.436;99.370;2023-08-17T03:15:09;10.03;;;5.70;;
12601;SDS011;30282;16.436;99.370;2023-08-17T03:17:38;18.60;;;6.17;;
12601;SDS011;30282;16.436;99.370;2023-08-17T03:20:07;11.07;;;5.77;;
12601;SDS011;30282;16.436;99.370;2023-08-17T03:22:37;11.07;;;6.50;;
12601;SDS011;30282;16.436;99.370;2023-08-17T03:25:06;14.10;;;6.50;;
12601;SDS011;30282;16.436;99.370;2023-08-17T03:27:36;13.03;;;6.30;;
12601;SDS011;30282;16.436;99.370;2023-08-17T03:30:06;16.97;;;5.87;;
12601;SDS011;30282;16.436;99.370;2023-08-17T03:32:37;11.90;;;5.67;;
12601;SDS011;30282;16.436;99.370;2023-08-17T03:35:06;10.90;;;6.17;;
12601;SDS011;30282;16.436;99.370;2023-08-17T03:37:36;13.03;;;6.00;;
12601;SDS011;30282;16.436;99.370;2023-08-17T03:40:06;17.63;;;6.93;;
12601;SDS011;30282;16.436;99.370;2023-08-17T03:42:36;11.03;;;6.23;;
12601;SDS011;30282;16.436;99.370;2023-08-17T03:45:05;18.43;;;7.23;;
12601;SDS011;30282;16.436;99.370;2023-08-17T03:47:36;11.50;;;5.70;;
12601;SDS011;30282;16.436;99.370;2023-08-17T03:50:06;10.77;;;6.20;;
12601;SDS011;30282;16.436;99.370;2023-08-17T03:52:36;12.43;;;5.13;;
12601;SDS011;30282;16.436;99.370;2023-08-17T03:55:05;29.63;;;6.17;;
12601;SDS011;30282;16.436;99.370;2023-08-17T03:57:35;32.03;;;7.70;;
12601;SDS011;30282;16.436;99.370;2023-08-17T04:00:04;11.10;;;6.30;;
12601;SDS011;30282;16.436;99.370;2023-08-17T04:02:37;12.83;;;5.73;;
12601;SDS011;30282;16.436;99.370;2023-08-17T04:05:06;16.17;;;5.70;;
12601;SDS011;30282;16.436;99.370;2023-08-17T04:07:36;9.00;;;4.60;;
12601;SDS011;30282;16.436;99.370;2023-08-17T04:10:05;15.90;;;5.30;;
12601;SDS011;30282;16.436;99.370;2023-08-17T04:12:35;14.40;;;5.30;;
12601;SDS011;30282;16.436;99.370;2023-08-17T04:15:04;15.40;;;5.30;;
12601;SDS011;30282;16.436;99.370;2023-08-17T04:17:34;44.97;;;7.30;;
12601;SDS011;30282;16.436;99.370;2023-08-17T04:20:05;19.47;;;5.00;;
12601;SDS011;30282;16.436;99.370;2023-08-17T04:22:35;15.23;;;5.00;;
12601;SDS011;30282;16.436;99.370;2023-08-17T04:25:04;10.90;;;4.30;;
12601;SDS011;30282;16.436;99.370;2023-08-17T04:27:34;13.73;;;4.63;;
12601;SDS011;30282;16.436;99.370;2023-08-17T04:30:03;14.60;;;4.63;;
12601;SDS011;30282;16.436;99.370;2023-08-17T04:32:36;8.47;;;3.80;;
12601;SDS011;30282;16.436;99.370;2023-08-17T04:35:07;20.57;;;4.60;;
12601;SDS011;30282;16.436;99.370;2023-08-17T04:37:37;11.90;;;4.83;;
12601;SDS011;30282;16.436;99.370;2023-08-17T04:40:07;22.00;;;5.30;;
12601;SDS011;30282;16.436;99.370;2023-08-17T04:42:36;8.50;;;4.10;;
12601;SDS011;30282;16.436;99.370;2023-08-17T04:45:06;11.90;;;4.47;;
12601;SDS011;30282;16.436;99.370;2023-08-17T04:47:36;13.40;;;4.80;;
12601;SDS011;30282;16.436;99.370;2023-08-17T04:50:07;11.43;;;4.80;;
12601;SDS011;30282;16.436;99.370;2023-08-17T04:52:38;11.90;;;5.10;;
12601;SDS011;30282;16.436;99.370;2023-08-17T04:55:07;17.57;;;6.40;;
12601;SDS011;30282;16.436;99.370;2023-08-17T04:57:36;8.40;;;4.83;;
12601;SDS011;30282;16.436;99.370;2023-08-17T05:00:06;16.10;;;5.43;;
12601;SDS011;30282;16.436;99.370;2023-08-17T05:02:36;11.43;;;5.87;;
12601;SDS011;30282;16.436;99.370;2023-08-17T05:05:09;12.07;;;5.67;;
12601;SDS011;30282;16.436;99.370;2023-08-17T05:07:40;16.33;;;5.10;;
12601;SDS011;30282;16.436;99.370;2023-08-17T05:10:09;13.40;;;4.90;;
12601;SDS011;30282;16.436;99.370;2023-08-17T05:12:38;10.80;;;4.50;;
12601;SDS011;30282;16.436;99.370;2023-08-17T05:15:08;13.67;;;4.20;;
12601;SDS011;30282;16.436;99.370;2023-08-17T05:17:37;10.60;;;4.80;;
12601;SDS011;30282;16.436;99.370;2023-08-17T05:20:09;10.30;;;5.10;;
12601;SDS011;30282;16.436;99.370;2023-08-17T05:22:40;48.57;;;7.63;;
12601;SDS011;30282;16.436;99.370;2023-08-17T05:25:09;19.37;;;8.00;;
12601;SDS011;30282;16.436;99.370;2023-08-17T05:27:38;52.97;;;9.53;;
12601;SDS011;30282;16.436;99.370;2023-08-17T05:30:07;9.37;;;5.83;;
12601;SDS011;30282;16.436;99.370;2023-08-17T05:32:36;65.27;;;37.17;;
12601;SDS011;30282;16.436;99.370;2023-08-17T05:35:05;38.63;;;21.37;;
12601;SDS011;30282;16.436;99.370;2023-08-17T05:37:37;39.13;;;19.73;;
12601;SDS011;30282;16.436;99.370;2023-08-17T05:40:06;35.47;;;19.60;;
12601;SDS011;30282;16.436;99.370;2023-08-17T05:42:36;41.93;;;22.53;;
12601;SDS011;30282;16.436;99.370;2023-08-17T05:45:08;41.57;;;20.30;;
12601;SDS011;30282;16.436;99.370;2023-08-17T05:47:38;32.93;;;18.10;;
12601;SDS011;30282;16.436;99.370;2023-08-17T05:50:09;42.77;;;21.80;;
12601;SDS011;30282;16.436;99.370;2023-08-17T05:52:38;30.23;;;16.67;;
12601;SDS011;30282;16.436;99.370;2023-08-17T05:55:08;29.67;;;16.10;;
12601;SDS011;30282;16.436;99.370;2023-08-17T05:57:38;33.83;;;18.03;;
12601;SDS011;30282;16.436;99.370;2023-08-17T06:00:07;34.37;;;18.90;;
12601;SDS011;30282;16.436;99.370;2023-08-17T06:02:38;39.10;;;20.90;;
12601;SDS011;30282;16.436;99.370;2023-08-17T06:05:07;37.30;;;20.67;;
12601;SDS011;30282;16.436;99.370;2023-08-17T06:07:38;33.70;;;19.97;;
12601;SDS011;30282;16.436;99.370;2023-08-17T06:10:07;17.17;;;7.00;;
12601;SDS011;30282;16.436;99.370;2023-08-17T06:12:37;13.33;;;4.87;;
12601;SDS011;30282;16.436;99.370;2023-08-17T06:15:07;9.30;;;4.37;;
12601;SDS011;30282;16.436;99.370;2023-08-17T06:17:36;6.63;;;4.00;;
12601;SDS011;30282;16.436;99.370;2023-08-17T06:20:07;7.50;;;4.30;;
12601;SDS011;30282;16.436;99.370;2023-08-17T06:22:40;11.50;;;5.37;;
12601;SDS011;30282;16.436;99.370;2023-08-17T06:25:09;20.87;;;5.57;;
12601;SDS011;30282;16.436;99.370;2023-08-17T06:27:38;14.70;;;5.30;;
12601;SDS011;30282;16.436;99.370;2023-08-17T06:30:09;13.90;;;4.90;;
12601;SDS011;30282;16.436;99.370;2023-08-17T06:32:39;8.40;;;4.10;;
12601;SDS011;30282;16.436;99.370;2023-08-17T06:35:10;10.97;;;5.57;;
12601;SDS011;30282;16.436;99.370;2023-08-17T06:37:39;11.47;;;5.27;;
12601;SDS011;30282;16.436;99.370;2023-08-17T06:40:08;17.53;;;5.57;;
12601;SDS011;30282;16.436;99.370;2023-08-17T06:42:39;14.53;;;6.40;;
12601;SDS011;30282;16.436;99.370;2023-08-17T06:45:08;15.77;;;6.87;;
12601;SDS011;30282;16.436;99.370;2023-08-17T06:47:37;58.33;;;10.43;;
12601;SDS011;30282;16.436;99.370;2023-08-17T06:50:07;15.33;;;6.40;;
12601;SDS011;30282;16.436;99.370;2023-08-17T06:52:38;25.80;;;8.77;;
12601;SDS011;30282;16.436;99.370;2023-08-17T06:55:07;24.50;;;7.93;;
12601;SDS011;30282;16.436;99.370;2023-08-17T06:57:37;17.37;;;7.90;;
12601;SDS011;30282;16.436;99.370;2023-08-17T07:00:07;23.67;;;7.07;;
12601;SDS011;30282;16.436;99.370;2023-08-17T07:02:37;16.97;;;7.87;;
12601;SDS011;30282;16.436;99.370;2023-08-17T07:05:06;14.60;;;7.67;;
12601;SDS011;30282;16.436;99.370;2023-08-17T07:07:37;14.57;;;6.83;;
12601;SDS011;30282;16.436;99.370;2023-08-17T07:10:08;17.57;;;6.97;;
12601;SDS011;30282;16.436;99.370;2023-08-17T07:12:37;18.43;;;8.13;;
12601;SDS011;30282;16.436;99.370;2023-08-17T07:15:07;17.37;;;7.67;;
12601;SDS011;30282;16.436;99.370;2023-08-17T07:17:36;16.43;;;7.60;;
12601;SDS011;30282;16.436;99.370;2023-08-17T07:20:06;14.93;;;6.33;;
12601;SDS011;30282;16.436;99.370;2023-08-17T07:22:38;19.57;;;7.13;;
12601;SDS011;30282;16.436;99.370;2023-08-17T07:25:08;16.57;;;7.57;;
12601;SDS011;30282;16.436;99.370;2023-08-17T07:27:37;15.00;;;7.33;;
12601;SDS011;30282;16.436;99.370;2023-08-17T07:30:06;15.90;;;6.80;;
12601;SDS011;30282;16.436;99.370;2023-08-17T07:32:36;14.60;;;6.70;;
12601;SDS011;30282;16.436;99.370;2023-08-17T07:35:06;13.73;;;6.67;;
12601;SDS011;30282;16.436;99.370;2023-08-17T07:37:35;12.83;;;6.73;;
12601;SDS011;30282;16.436;99.370;2023-08-17T07:40:07;14.23;;;6.07;;
12601;SDS011;30282;16.436;99.370;2023-08-17T07:42:37;9.33;;;5.37;;
12601;SDS011;30282;16.436;99.370;2023-08-17T07:45:06;12.77;;;5.97;;
12601;SDS011;30282;16.436;99.370;2023-08-17T07:47:36;16.37;;;6.33;;
12601;SDS011;30282;16.436;99.370;2023-08-17T07:50:05;18.10;;;7.40;;
12601;SDS011;30282;16.436;99.370;2023-08-17T07:52:35;15.83;;;5.63;;
12601;SDS011;30282;16.436;99.370;2023-08-17T07:55:06;12.47;;;5.70;;
12601;SDS011;30282;16.436;99.370;2023-08-17T07:57:37;13.50;;;6.07;;
12601;SDS011;30282;16.436;99.370;2023-08-17T08:02:55;15.80;;;5.73;;
12601;SDS011;30282;16.436;99.370;2023-08-17T08:05:25;11.60;;;4.90;;
12601;SDS011;30282;16.436;99.370;2023-08-17T08:07:57;15.87;;;6.10;;
12601;SDS011;30282;16.436;99.370;2023-08-17T08:10:48;12.80;;;4.30;;
12601;SDS011;30282;16.436;99.370;2023-08-17T08:13:17;13.50;;;4.87;;
12601;SDS011;30282;16.436;99.370;2023-08-17T08:15:47;13.60;;;4.10;;
12601;SDS011;30282;16.436;99.370;2023-08-17T08:18:16;13.20;;;5.27;;
12601;SDS011;30282;16.436;99.370;2023-08-17T08:20:45;10.53;;;4.87;;
12601;SDS011;30282;16.436;99.370;2023-08-17T08:23:16;11.90;;;4.67;;
12601;SDS011;30282;16.436;99.370;2023-08-17T08:25:45;10.70;;;4.50;;
12601;SDS011;30282;16.436;99.370;2023-08-17T08:28:14;20.17;;;5.70;;
12601;SDS011;30282;16.436;99.370;2023-08-17T08:30:43;16.70;;;5.83;;
12601;SDS011;30282;16.436;99.370;2023-08-17T08:33:13;11.93;;;5.20;;
12601;SDS011;30282;16.436;99.370;2023-08-17T08:35:42;10.27;;;5.00;;
12601;SDS011;30282;16.436;99.370;2023-08-17T08:38:11;18.10;;;5.40;;
12601;SDS011;30282;16.436;99.370;2023-08-17T08:40:43;15.60;;;5.70;;
12601;SDS011;30282;16.436;99.370;2023-08-17T08:43:15;12.23;;;5.67;;
12601;SDS011;30282;16.436;99.370;2023-08-17T08:45:45;14.20;;;4.60;;
12601;SDS011;30282;16.436;99.370;2023-08-17T08:48:15;11.17;;;5.23;;
12601;SDS011;30282;16.436;99.370;2023-08-17T08:50:46;15.47;;;5.40;;
12601;SDS011;30282;16.436;99.370;2023-08-17T08:53:16;20.03;;;6.00;;
12601;SDS011;30282;16.436;99.370;2023-08-17T08:55:52;15.43;;;5.93;;
12601;SDS011;30282;16.436;99.370;2023-08-17T08:58:25;10.43;;;5.50;;
12601;SDS011;30282;16.436;99.370;2023-08-17T09:00:55;15.17;;;6.87;;
12601;SDS011;30282;16.436;99.370;2023-08-17T09:03:26;22.43;;;8.37;;
12601;SDS011;30282;16.436;99.370;2023-08-17T09:05:56;10.10;;;5.20;;
12601;SDS011;30282;16.436;99.370;2023-08-17T09:08:27;11.90;;;6.00;;
12601;SDS011;30282;16.436;99.370;2023-08-17T09:11:01;16.63;;;5.63;;
12601;SDS011;30282;16.436;99.370;2023-08-17T09:13:30;14.80;;;5.37;;
12601;SDS011;30282;16.436;99.370;2023-08-17T09:15:59;8.87;;;4.07;;
12601;SDS011;30282;16.436;99.370;2023-08-17T09:18:29;8.60;;;3.53;;
12601;SDS011;30282;16.436;99.370;2023-08-17T09:21:01;6.20;;;2.53;;
12601;SDS011;30282;16.436;99.370;2023-08-17T09:23:30;10.80;;;2.70;;
12601;SDS011;30282;16.436;99.370;2023-08-17T09:26:04;6.13;;;2.57;;
12601;SDS011;30282;16.436;99.370;2023-08-17T09:28:38;9.00;;;3.13;;
12601;SDS011;30282;16.436;99.370;2023-08-17T09:31:08;6.93;;;2.50;;
12601;SDS011;30282;16.436;99.370;2023-08-17T09:33:37;9.27;;;2.70;;
12601;SDS011;30282;16.436;99.370;2023-08-17T09:36:06;6.63;;;2.33;;
12601;SDS011;30282;16.436;99.370;2023-08-17T09:38:37;6.00;;;2.60;;
12601;SDS011;30282;16.436;99.370;2023-08-17T09:41:08;8.30;;;2.20;;
12601;SDS011;30282;16.436;99.370;2023-08-17T09:43:39;6.13;;;2.33;;
12601;SDS011;30282;16.436;99.370;2023-08-17T09:46:09;8.10;;;2.50;;
12601;SDS011;30282;16.436;99.370;2023-08-17T09:48:38;7.40;;;2.40;;
12601;SDS011;30282;16.436;99.370;2023-08-17T09:51:07;7.47;;;2.50;;
12601;SDS011;30282;16.436;99.370;2023-08-17T09:53:36;6.80;;;2.37;;
12601;SDS011;30282;16.436;99.370;2023-08-17T09:56:06;4.57;;;2.10;;
12601;SDS011;30282;16.436;99.370;2023-08-17T09:58:38;6.13;;;2.20;;
12601;SDS011;30282;16.436;99.370;2023-08-17T10:01:07;5.67;;;2.10;;
12601;SDS011;30282;16.436;99.370;2023-08-17T10:03:39;10.27;;;2.93;;
12601;SDS011;30282;16.436;99.370;2023-08-17T10:06:12;8.03;;;3.20;;
12601;SDS011;30282;16.436;99.370;2023-08-17T10:08:45;7.80;;;2.63;;
12601;SDS011;30282;16.436;99.370;2023-08-17T10:11:18;7.10;;;2.70;;
12601;SDS011;30282;16.436;99.370;2023-08-17T10:13:51;10.10;;;2.83;;
12601;SDS011;30282;16.436;99.370;2023-08-17T10:16:26;7.77;;;2.60;;
12601;SDS011;30282;16.436;99.370;2023-08-17T10:19:03;9.27;;;2.87;;
12601;SDS011;30282;16.436;99.370;2023-08-17T10:21:40;5.47;;;2.70;;
12601;SDS011;30282;16.436;99.370;2023-08-17T10:24:11;10.50;;;2.50;;
12601;SDS011;30282;16.436;99.370;2023-08-17T10:26:43;8.20;;;2.53;;
12601;SDS011;30282;16.436;99.370;2023-08-17T10:29:13;8.17;;;2.67;;
12601;SDS011;30282;16.436;99.370;2023-08-17T10:31:44;4.20;;;1.90;;
12601;SDS011;30282;16.436;99.370;2023-08-17T10:34:13;7.37;;;2.43;;
12601;SDS011;30282;16.436;99.370;2023-08-17T10:36:43;11.03;;;2.67;;
12601;SDS011;30282;16.436;99.370;2023-08-17T10:39:22;4.50;;;2.17;;
12601;SDS011;30282;16.436;99.370;2023-08-17T10:41:55;8.70;;;2.63;;
12601;SDS011;30282;16.436;99.370;2023-08-17T10:44:40;5.67;;;2.20;;
12601;SDS011;30282;16.436;99.370;2023-08-17T10:47:24;9.63;;;2.93;;
12601;SDS011;30282;16.436;99.370;2023-08-17T10:49:57;7.23;;;2.30;;
12601;SDS011;30282;16.436;99.370;2023-08-17T10:52:28;10.73;;;3.10;;
12601;SDS011;30282;16.436;99.370;2023-08-17T10:55:01;9.77;;;3.37;;
12601;SDS011;30282;16.436;99.370;2023-08-17T10:57:35;14.60;;;3.30;;
12601;SDS011;30282;16.436;99.370;2023-08-17T11:00:06;15.30;;;3.67;;
12601;SDS011;30282;16.436;99.370;2023-08-17T11:02:56;8.63;;;2.67;;
12601;SDS011;30282;16.436;99.370;2023-08-17T11:05:36;13.03;;;3.23;;
12601;SDS011;30282;16.436;99.370;2023-08-17T11:08:08;11.47;;;3.03;;
12601;SDS011;30282;16.436;99.370;2023-08-17T11:10:41;12.03;;;2.90;;
12601;SDS011;30282;16.436;99.370;2023-08-17T11:13:18;8.37;;;3.17;;
12601;SDS011;30282;16.436;99.370;2023-08-17T11:15:48;9.13;;;2.80;;
12601;SDS011;30282;16.436;99.370;2023-08-17T11:18:18;8.60;;;2.40;;
12601;SDS011;30282;16.436;99.370;2023-08-17T11:20:50;7.07;;;2.80;;
12601;SDS011;30282;16.436;99.370;2023-08-17T11:23:22;6.77;;;3.20;;
12601;SDS011;30282;16.436;99.370;2023-08-17T11:25:56;8.40;;;2.77;;
12601;SDS011;30282;16.436;99.370;2023-08-17T11:28:29;7.87;;;2.77;;
12601;SDS011;30282;16.436;99.370;2023-08-17T11:31:02;8.13;;;2.70;;
12601;SDS011;30282;16.436;99.370;2023-08-17T11:33:34;7.20;;;2.80;;
12601;SDS011;30282;16.436;99.370;2023-08-17T11:36:05;9.30;;;3.10;;
12601;SDS011;30282;16.436;99.370;2023-08-17T11:38:35;7.03;;;3.63;;
12601;SDS011;30282;16.436;99.370;2023-08-17T11:41:06;8.53;;;3.07;;
12601;SDS011;30282;16.436;99.370;2023-08-17T11:43:39;6.60;;;2.27;;
12601;SDS011;30282;16.436;99.370;2023-08-17T11:46:10;7.93;;;2.80;;
12601;SDS011;30282;16.436;99.370;2023-08-17T11:48:40;16.63;;;3.40;;
12601;SDS011;30282;16.436;99.370;2023-08-17T11:51:09;9.70;;;4.13;;
12601;SDS011;30282;16.436;99.370;2023-08-17T11:53:39;9.47;;;3.10;;
12601;SDS011;30282;16.436;99.370;2023-08-17T11:56:08;10.20;;;2.27;;
12601;SDS011;30282;16.436;99.370;2023-08-17T11:58:45;8.13;;;3.43;;
12601;SDS011;30282;16.436;99.370;2023-08-17T12:01:14;8.47;;;5.03;;
12601;SDS011;30282;16.436;99.370;2023-08-17T12:03:43;16.23;;;7.53;;
12601;SDS011;30282;16.436;99.370;2023-08-17T12:06:13;11.83;;;5.90;;
12601;SDS011;30282;16.436;99.370;2023-08-17T12:08:44;11.40;;;5.00;;
12601;SDS011;30282;16.436;99.370;2023-08-17T12:11:14;13.40;;;5.43;;
12601;SDS011;30282;16.436;99.370;2023-08-17T12:13:50;10.20;;;3.90;;
12601;SDS011;30282;16.436;99.370;2023-08-17T12:16:19;12.47;;;2.70;;
12601;SDS011;30282;16.436;99.370;2023-08-17T12:18:50;5.57;;;2.60;;
12601;SDS011;30282;16.436;99.370;2023-08-17T12:21:20;7.43;;;2.70;;
12601;SDS011;30282;16.436;99.370;2023-08-17T12:23:56;6.40;;;2.50;;
12601;SDS011;30282;16.436;99.370;2023-08-17T12:26:26;9.63;;;2.53;;
12601;SDS011;30282;16.436;99.370;2023-08-17T12:28:57;7.20;;;2.33;;
12601;SDS011;30282;16.436;99.370;2023-08-17T12:31:26;5.30;;;2.37;;
12601;SDS011;30282;16.436;99.370;2023-08-17T12:33:57;6.00;;;1.73;;
12601;SDS011;30282;16.436;99.370;2023-08-17T12:36:27;5.20;;;2.10;;
12601;SDS011;30282;16.436;99.370;2023-08-17T12:38:56;5.67;;;1.97;;
12601;SDS011;30282;16.436;99.370;2023-08-17T12:41:25;7.00;;;1.70;;
12601;SDS011;30282;16.436;99.370;2023-08-17T12:43:55;4.80;;;1.60;;
12601;SDS011;30282;16.436;99.370;2023-08-17T12:46:26;5.63;;;1.70;;
12601;SDS011;30282;16.436;99.370;2023-08-17T12:48:58;5.10;;;1.80;;
12601;SDS011;30282;16.436;99.370;2023-08-17T12:51:27;7.03;;;1.67;;
12601;SDS011;30282;16.436;99.370;2023-08-17T12:53:59;6.37;;;1.90;;
12601;SDS011;30282;16.436;99.370;2023-08-17T12:56:28;5.63;;;2.23;;
12601;SDS011;30282;16.436;99.370;2023-08-17T12:58:59;7.63;;;1.83;;
12601;SDS011;30282;16.436;99.370;2023-08-17T13:01:28;8.93;;;2.23;;
12601;SDS011;30282;16.436;99.370;2023-08-17T13:03:58;5.00;;;2.20;;
12601;SDS011;30282;16.436;99.370;2023-08-17T13:06:27;5.70;;;1.90;;
12601;SDS011;30282;16.436;99.370;2023-08-17T13:08:56;11.40;;;1.87;;
12601;SDS011;30282;16.436;99.370;2023-08-17T13:11:30;7.10;;;2.20;;
12601;SDS011;30282;16.436;99.370;2023-08-17T13:14:01;9.73;;;3.20;;
12601;SDS011;30282;16.436;99.370;2023-08-17T13:16:30;5.87;;;2.10;;
12601;SDS011;30282;16.436;99.370;2023-08-17T13:19:00;11.80;;;3.27;;
12601;SDS011;30282;16.436;99.370;2023-08-17T13:21:29;7.23;;;2.50;;
12601;SDS011;30282;16.436;99.370;2023-08-17T13:23:58;13.30;;;3.90;;
12601;SDS011;30282;16.436;99.370;2023-08-17T13:26:28;6.63;;;3.37;;
12601;SDS011;30282;16.436;99.370;2023-08-17T13:28:58;12.00;;;3.80;;
12601;SDS011;30282;16.436;99.370;2023-08-17T13:31:28;9.57;;;4.37;;
12601;SDS011;30282;16.436;99.370;2023-08-17T13:33:58;7.77;;;3.53;;
12601;SDS011;30282;16.436;99.370;2023-08-17T13:36:27;10.07;;;3.40;;
12601;SDS011;30282;16.436;99.370;2023-08-17T13:38:58;13.57;;;4.27;;
12601;SDS011;30282;16.436;99.370;2023-08-17T13:41:28;10.80;;;4.20;;
12601;SDS011;30282;16.436;99.370;2023-08-17T13:43:57;8.93;;;3.37;;
12601;SDS011;30282;16.436;99.370;2023-08-17T13:46:29;10.03;;;4.07;;
12601;SDS011;30282;16.436;99.370;2023-08-17T13:48:58;8.27;;;3.83;;
12601;SDS011;30282;16.436;99.370;2023-08-17T13:51:28;6.50;;;3.33;;
12601;SDS011;30282;16.436;99.370;2023-08-17T13:53:57;14.10;;;4.47;;
12601;SDS011;30282;16.436;99.370;2023-08-17T13:56:26;7.90;;;3.87;;
12601;SDS011;30282;16.436;99.370;2023-08-17T13:58:55;9.00;;;3.70;;
12601;SDS011;30282;16.436;99.370;2023-08-17T14:01:24;15.67;;;4.47;;
12601;SDS011;30282;16.436;99.370;2023-08-17T14:03:55;9.47;;;3.90;;
12601;SDS011;30282;16.436;99.370;2023-08-17T14:06:24;15.07;;;4.40;;
12601;SDS011;30282;16.436;99.370;2023-08-17T14:08:53;8.37;;;3.80;;
12601;SDS011;30282;16.436;99.370;2023-08-17T14:11:23;9.10;;;3.47;;
12601;SDS011;30282;16.436;99.370;2023-08-17T14:13:52;13.70;;;5.10;;
12601;SDS011;30282;16.436;99.370;2023-08-17T14:16:21;10.30;;;3.80;;
12601;SDS011;30282;16.436;99.370;2023-08-17T14:18:50;9.13;;;4.10;;
12601;SDS011;30282;16.436;99.370;2023-08-17T14:21:22;8.47;;;4.13;;
12601;SDS011;30282;16.436;99.370;2023-08-17T14:23:51;12.37;;;4.83;;
12601;SDS011;30282;16.436;99.370;2023-08-17T14:26:20;10.10;;;4.43;;
12601;SDS011;30282;16.436;99.370;2023-08-17T14:28:49;14.80;;;4.90;;
12601;SDS011;30282;16.436;99.370;2023-08-17T14:31:18;8.20;;;4.87;;
12601;SDS011;30282;16.436;99.370;2023-08-17T14:33:47;8.33;;;4.40;;
12601;SDS011;30282;16.436;99.370;2023-08-17T14:36:16;9.50;;;4.90;;
12601;SDS011;30282;16.436;99.370;2023-08-17T14:38:47;14.30;;;5.33;;
12601;SDS011;30282;16.436;99.370;2023-08-17T14:41:16;9.23;;;4.53;;
12601;SDS011;30282;16.436;99.370;2023-08-17T14:43:46;8.80;;;4.20;;
12601;SDS011;30282;16.436;99.370;2023-08-17T14:46:15;13.13;;;4.23;;